sensor_id;sensor_type;location;lat;lon;timestamp;P1;durP1;ratioP1;P2;durP2;ratioP2
22632;SDS011;11483;55.828;37.488;2022-09-28T00:01:05;16.67;;;4.75;;
22632;SDS011;11483;55.828;37.488;2022-09-28T00:03:32;8.63;;;4.47;;
22632;SDS011;11483;55.828;37.488;2022-09-28T00:06:05;8.30;;;3.90;;
22632;SDS011;11483;55.828;37.488;2022-09-28T00:08:33;8.00;;;4.35;;
22632;SDS011;11483;55.828;37.488;2022-09-28T00:11:00;7.25;;;4.70;;
22632;SDS011;11483;55.828;37.488;2022-09-28T00:13:27;10.95;;;4.40;;
22632;SDS011;11483;55.828;37.488;2022-09-28T00:16:00;6.30;;;4.15;;
22632;SDS011;11483;55.828;37.488;2022-09-28T00:18:30;8.27;;;4.78;;
22632;SDS011;11483;55.828;37.488;2022-09-28T00:21:05;13.57;;;4.68;;
22632;SDS011;11483;55.828;37.488;2022-09-28T00:23:36;8.93;;;4.75;;
22632;SDS011;11483;55.828;37.488;2022-09-28T00:26:20;8.00;;;4.57;;
22632;SDS011;11483;55.828;37.488;2022-09-28T00:28:46;7.47;;;4.60;;
22632;SDS011;11483;55.828;37.488;2022-09-28T00:31:16;7.45;;;4.60;;
22632;SDS011;11483;55.828;37.488;2022-09-28T00:33:42;7.18;;;4.22;;
22632;SDS011;11483;55.828;37.488;2022-09-28T00:36:09;9.32;;;3.70;;
22632;SDS011;11483;55.828;37.488;2022-09-28T00:38:35;7.35;;;4.43;;
22632;SDS011;11483;55.828;37.488;2022-09-28T00:41:01;7.55;;;4.32;;
22632;SDS011;11483;55.828;37.488;2022-09-28T00:43:27;6.68;;;3.92;;
22632;SDS011;11483;55.828;37.488;2022-09-28T00:46:01;7.45;;;4.15;;
22632;SDS011;11483;55.828;37.488;2022-09-28T00:48:34;5.47;;;3.90;;
22632;SDS011;11483;55.828;37.488;2022-09-28T00:51:05;7.43;;;3.15;;
22632;SDS011;11483;55.828;37.488;2022-09-28T00:53:34;5.88;;;3.42;;
22632;SDS011;11483;55.828;37.488;2022-09-28T00:56:03;8.35;;;4.40;;
22632;SDS011;11483;55.828;37.488;2022-09-28T00:58:37;4.78;;;3.28;;
22632;SDS011;11483;55.828;37.488;2022-09-28T01:01:08;5.43;;;3.38;;
22632;SDS011;11483;55.828;37.488;2022-09-28T01:03:34;6.75;;;3.88;;
22632;SDS011;11483;55.828;37.488;2022-09-28T01:06:02;8.25;;;3.72;;
22632;SDS011;11483;55.828;37.488;2022-09-28T01:08:33;5.55;;;3.72;;
22632;SDS011;11483;55.828;37.488;2022-09-28T01:11:01;7.03;;;3.47;;
22632;SDS011;11483;55.828;37.488;2022-09-28T01:13:27;5.53;;;3.85;;
22632;SDS011;11483;55.828;37.488;2022-09-28T01:16:12;11.10;;;3.97;;
22632;SDS011;11483;55.828;37.488;2022-09-28T01:27:46;5.60;;;3.70;;
22632;SDS011;11483;55.828;37.488;2022-09-28T01:30:17;6.95;;;3.38;;
22632;SDS011;11483;55.828;37.488;2022-09-28T01:35:53;6.85;;;4.15;;
22632;SDS011;11483;55.828;37.488;2022-09-28T01:38:25;7.93;;;4.28;;
22632;SDS011;11483;55.828;37.488;2022-09-28T01:41:10;5.97;;;3.95;;
22632;SDS011;11483;55.828;37.488;2022-09-28T01:43:38;9.73;;;3.70;;
22632;SDS011;11483;55.828;37.488;2022-09-28T01:46:15;6.40;;;3.75;;
22632;SDS011;11483;55.828;37.488;2022-09-28T01:51:17;5.90;;;3.78;;
22632;SDS011;11483;55.828;37.488;2022-09-28T01:53:51;4.90;;;3.50;;
22632;SDS011;11483;55.828;37.488;2022-09-28T01:56:23;5.32;;;3.70;;
22632;SDS011;11483;55.828;37.488;2022-09-28T01:59:06;5.63;;;3.65;;
22632;SDS011;11483;55.828;37.488;2022-09-28T02:01:43;5.63;;;3.88;;
22632;SDS011;11483;55.828;37.488;2022-09-28T02:04:18;5.90;;;3.80;;
22632;SDS011;11483;55.828;37.488;2022-09-28T02:07:06;4.22;;;3.00;;
22632;SDS011;11483;55.828;37.488;2022-09-28T02:10:04;5.25;;;3.47;;
22632;SDS011;11483;55.828;37.488;2022-09-28T02:12:49;8.68;;;3.40;;
22632;SDS011;11483;55.828;37.488;2022-09-28T02:18:25;5.40;;;3.45;;
22632;SDS011;11483;55.828;37.488;2022-09-28T02:20:55;5.15;;;3.28;;
22632;SDS011;11483;55.828;37.488;2022-09-28T02:23:29;5.90;;;3.00;;
22632;SDS011;11483;55.828;37.488;2022-09-28T02:26:02;5.60;;;2.80;;
22632;SDS011;11483;55.828;37.488;2022-09-28T02:28:33;4.03;;;2.92;;
22632;SDS011;11483;55.828;37.488;2022-09-28T02:30:59;3.60;;;2.83;;
22632;SDS011;11483;55.828;37.488;2022-09-28T02:33:43;5.68;;;3.17;;
22632;SDS011;11483;55.828;37.488;2022-09-28T02:36:11;3.92;;;2.65;;
22632;SDS011;11483;55.828;37.488;2022-09-28T02:38:37;4.82;;;3.08;;
22632;SDS011;11483;55.828;37.488;2022-09-28T02:41:05;6.00;;;3.47;;
22632;SDS011;11483;55.828;37.488;2022-09-28T02:43:58;5.53;;;3.50;;
22632;SDS011;11483;55.828;37.488;2022-09-28T02:46:45;6.30;;;3.50;;
22632;SDS011;11483;55.828;37.488;2022-09-28T02:49:22;4.80;;;3.30;;
22632;SDS011;11483;55.828;37.488;2022-09-28T02:59:47;5.18;;;3.22;;
22632;SDS011;11483;55.828;37.488;2022-09-28T03:05:01;5.95;;;3.13;;
22632;SDS011;11483;55.828;37.488;2022-09-28T03:07:58;6.18;;;3.05;;
22632;SDS011;11483;55.828;37.488;2022-09-28T03:10:50;6.28;;;3.17;;
22632;SDS011;11483;55.828;37.488;2022-09-28T03:13:28;6.35;;;3.17;;
22632;SDS011;11483;55.828;37.488;2022-09-28T03:18:51;5.28;;;2.88;;
22632;SDS011;11483;55.828;37.488;2022-09-28T03:21:17;4.47;;;2.80;;
22632;SDS011;11483;55.828;37.488;2022-09-28T03:23:43;3.92;;;2.50;;
22632;SDS011;11483;55.828;37.488;2022-09-28T03:26:09;5.55;;;2.92;;
22632;SDS011;11483;55.828;37.488;2022-09-28T03:28:36;3.78;;;2.72;;
22632;SDS011;11483;55.828;37.488;2022-09-28T03:31:02;5.22;;;3.20;;
22632;SDS011;11483;55.828;37.488;2022-09-28T03:33:28;5.18;;;3.30;;
22632;SDS011;11483;55.828;37.488;2022-09-28T03:35:54;4.55;;;3.20;;
22632;SDS011;11483;55.828;37.488;2022-09-28T03:38:20;4.85;;;3.30;;
22632;SDS011;11483;55.828;37.488;2022-09-28T03:40:56;5.38;;;3.20;;
22632;SDS011;11483;55.828;37.488;2022-09-28T03:43:23;8.45;;;3.53;;
22632;SDS011;11483;55.828;37.488;2022-09-28T03:45:51;5.35;;;2.97;;
22632;SDS011;11483;55.828;37.488;2022-09-28T03:48:19;4.30;;;3.00;;
22632;SDS011;11483;55.828;37.488;2022-09-28T03:50:47;4.47;;;2.90;;
22632;SDS011;11483;55.828;37.488;2022-09-28T03:53:16;8.27;;;3.35;;
22632;SDS011;11483;55.828;37.488;2022-09-28T03:55:42;4.05;;;3.15;;
22632;SDS011;11483;55.828;37.488;2022-09-28T03:58:07;5.38;;;3.30;;
22632;SDS011;11483;55.828;37.488;2022-09-28T04:00:33;5.43;;;3.20;;
22632;SDS011;11483;55.828;37.488;2022-09-28T04:02:59;4.88;;;2.78;;
22632;SDS011;11483;55.828;37.488;2022-09-28T04:05:25;6.35;;;3.50;;
22632;SDS011;11483;55.828;37.488;2022-09-28T04:07:52;5.80;;;3.17;;
22632;SDS011;11483;55.828;37.488;2022-09-28T04:10:20;7.20;;;3.47;;
22632;SDS011;11483;55.828;37.488;2022-09-28T04:12:46;6.45;;;3.47;;
22632;SDS011;11483;55.828;37.488;2022-09-28T04:15:12;5.30;;;3.63;;
22632;SDS011;11483;55.828;37.488;2022-09-28T04:17:38;10.40;;;3.00;;
22632;SDS011;11483;55.828;37.488;2022-09-28T04:20:04;4.50;;;3.13;;
22632;SDS011;11483;55.828;37.488;2022-09-28T04:22:31;6.30;;;3.10;;
22632;SDS011;11483;55.828;37.488;2022-09-28T04:24:57;7.30;;;3.60;;
22632;SDS011;11483;55.828;37.488;2022-09-28T04:27:23;9.45;;;3.38;;
22632;SDS011;11483;55.828;37.488;2022-09-28T04:30:08;5.90;;;3.33;;
22632;SDS011;11483;55.828;37.488;2022-09-28T04:32:34;7.65;;;3.70;;
22632;SDS011;11483;55.828;37.488;2022-09-28T04:35:00;7.75;;;3.05;;
22632;SDS011;11483;55.828;37.488;2022-09-28T04:37:26;10.45;;;3.28;;
22632;SDS011;11483;55.828;37.488;2022-09-28T04:39:52;4.75;;;3.33;;
22632;SDS011;11483;55.828;37.488;2022-09-28T04:42:18;7.05;;;3.42;;
22632;SDS011;11483;55.828;37.488;2022-09-28T04:44:43;6.43;;;3.22;;
22632;SDS011;11483;55.828;37.488;2022-09-28T04:47:09;5.22;;;3.25;;
22632;SDS011;11483;55.828;37.488;2022-09-28T04:49:35;5.70;;;3.47;;
22632;SDS011;11483;55.828;37.488;2022-09-28T04:52:02;5.78;;;3.30;;
22632;SDS011;11483;55.828;37.488;2022-09-28T04:54:29;6.57;;;3.80;;
22632;SDS011;11483;55.828;37.488;2022-09-28T04:56:55;13.18;;;4.43;;
22632;SDS011;11483;55.828;37.488;2022-09-28T04:59:22;6.40;;;3.65;;
22632;SDS011;11483;55.828;37.488;2022-09-28T05:01:48;7.15;;;3.63;;
22632;SDS011;11483;55.828;37.488;2022-09-28T05:04:14;8.90;;;4.10;;
22632;SDS011;11483;55.828;37.488;2022-09-28T05:06:40;7.95;;;3.85;;
22632;SDS011;11483;55.828;37.488;2022-09-28T05:09:06;7.03;;;3.95;;
22632;SDS011;11483;55.828;37.488;2022-09-28T05:11:33;6.47;;;3.92;;
22632;SDS011;11483;55.828;37.488;2022-09-28T05:13:59;6.97;;;4.32;;
22632;SDS011;11483;55.828;37.488;2022-09-28T05:16:25;8.43;;;3.58;;
22632;SDS011;11483;55.828;37.488;2022-09-28T05:18:55;13.57;;;3.70;;
22632;SDS011;11483;55.828;37.488;2022-09-28T05:21:21;5.05;;;3.42;;
22632;SDS011;11483;55.828;37.488;2022-09-28T05:23:49;5.68;;;3.10;;
22632;SDS011;11483;55.828;37.488;2022-09-28T05:26:15;6.50;;;3.55;;
22632;SDS011;11483;55.828;37.488;2022-09-28T05:28:42;4.82;;;3.45;;
22632;SDS011;11483;55.828;37.488;2022-09-28T05:31:08;8.07;;;3.78;;
22632;SDS011;11483;55.828;37.488;2022-09-28T05:33:34;5.45;;;3.67;;
22632;SDS011;11483;55.828;37.488;2022-09-28T05:36:01;8.95;;;3.30;;
22632;SDS011;11483;55.828;37.488;2022-09-28T05:38:28;5.20;;;3.70;;
22632;SDS011;11483;55.828;37.488;2022-09-28T05:40:54;8.55;;;3.67;;
22632;SDS011;11483;55.828;37.488;2022-09-28T05:43:20;9.52;;;3.78;;
22632;SDS011;11483;55.828;37.488;2022-09-28T05:45:46;7.30;;;3.75;;
22632;SDS011;11483;55.828;37.488;2022-09-28T05:48:13;5.72;;;3.53;;
22632;SDS011;11483;55.828;37.488;2022-09-28T05:50:39;11.82;;;3.88;;
22632;SDS011;11483;55.828;37.488;2022-09-28T05:53:06;10.35;;;3.88;;
22632;SDS011;11483;55.828;37.488;2022-09-28T05:55:32;8.30;;;4.30;;
22632;SDS011;11483;55.828;37.488;2022-09-28T05:57:59;8.50;;;4.38;;
22632;SDS011;11483;55.828;37.488;2022-09-28T06:00:26;8.32;;;3.70;;
22632;SDS011;11483;55.828;37.488;2022-09-28T06:03:00;5.43;;;3.70;;
22632;SDS011;11483;55.828;37.488;2022-09-28T06:05:27;7.45;;;3.78;;
22632;SDS011;11483;55.828;37.488;2022-09-28T06:07:54;10.40;;;3.47;;
22632;SDS011;11483;55.828;37.488;2022-09-28T06:10:25;8.55;;;3.65;;
22632;SDS011;11483;55.828;37.488;2022-09-28T06:12:56;9.50;;;3.38;;
22632;SDS011;11483;55.828;37.488;2022-09-28T06:15:23;8.05;;;3.78;;
22632;SDS011;11483;55.828;37.488;2022-09-28T06:17:54;5.53;;;3.20;;
22632;SDS011;11483;55.828;37.488;2022-09-28T06:20:27;3.92;;;2.65;;
22632;SDS011;11483;55.828;37.488;2022-09-28T06:22:55;5.25;;;2.83;;
22632;SDS011;11483;55.828;37.488;2022-09-28T06:25:22;7.03;;;2.58;;
22632;SDS011;11483;55.828;37.488;2022-09-28T06:27:52;6.53;;;3.25;;
22632;SDS011;11483;55.828;37.488;2022-09-28T06:30:22;6.10;;;2.88;;
22632;SDS011;11483;55.828;37.488;2022-09-28T06:32:51;8.57;;;2.83;;
22632;SDS011;11483;55.828;37.488;2022-09-28T06:35:21;3.83;;;2.55;;
22632;SDS011;11483;55.828;37.488;2022-09-28T06:37:49;5.13;;;2.40;;
22632;SDS011;11483;55.828;37.488;2022-09-28T06:40:16;5.72;;;2.63;;
22632;SDS011;11483;55.828;37.488;2022-09-28T06:42:42;3.42;;;2.40;;
22632;SDS011;11483;55.828;37.488;2022-09-28T06:45:08;8.57;;;2.88;;
22632;SDS011;11483;55.828;37.488;2022-09-28T06:47:37;5.57;;;2.80;;
22632;SDS011;11483;55.828;37.488;2022-09-28T06:50:04;6.32;;;2.85;;
22632;SDS011;11483;55.828;37.488;2022-09-28T06:52:36;4.22;;;2.60;;
22632;SDS011;11483;55.828;37.488;2022-09-28T06:55:02;5.95;;;2.75;;
22632;SDS011;11483;55.828;37.488;2022-09-28T06:57:28;7.50;;;2.72;;
22632;SDS011;11483;55.828;37.488;2022-09-28T06:59:54;5.80;;;2.67;;
22632;SDS011;11483;55.828;37.488;2022-09-28T07:02:20;8.25;;;2.80;;
22632;SDS011;11483;55.828;37.488;2022-09-28T07:04:47;5.00;;;2.95;;
22632;SDS011;11483;55.828;37.488;2022-09-28T07:07:13;8.15;;;3.53;;
22632;SDS011;11483;55.828;37.488;2022-09-28T07:09:38;9.45;;;3.20;;
22632;SDS011;11483;55.828;37.488;2022-09-28T07:12:04;7.00;;;3.20;;
22632;SDS011;11483;55.828;37.488;2022-09-28T07:14:34;3.28;;;2.55;;
22632;SDS011;11483;55.828;37.488;2022-09-28T07:17:00;5.90;;;2.92;;
22632;SDS011;11483;55.828;37.488;2022-09-28T07:19:27;15.40;;;3.17;;
22632;SDS011;11483;55.828;37.488;2022-09-28T07:21:53;6.15;;;3.40;;
22632;SDS011;11483;55.828;37.488;2022-09-28T07:24:19;5.57;;;3.70;;
22632;SDS011;11483;55.828;37.488;2022-09-28T07:26:45;5.05;;;3.15;;
22632;SDS011;11483;55.828;37.488;2022-09-28T07:29:11;7.60;;;3.10;;
22632;SDS011;11483;55.828;37.488;2022-09-28T07:31:37;6.15;;;2.88;;
22632;SDS011;11483;55.828;37.488;2022-09-28T07:34:04;5.70;;;3.25;;
22632;SDS011;11483;55.828;37.488;2022-09-28T07:36:30;5.05;;;2.60;;
22632;SDS011;11483;55.828;37.488;2022-09-28T07:39:02;4.32;;;2.60;;
22632;SDS011;11483;55.828;37.488;2022-09-28T07:41:28;8.02;;;2.95;;
22632;SDS011;11483;55.828;37.488;2022-09-28T07:44:00;3.80;;;2.30;;
22632;SDS011;11483;55.828;37.488;2022-09-28T07:46:33;2.60;;;2.20;;
22632;SDS011;11483;55.828;37.488;2022-09-28T07:49:00;3.47;;;2.70;;
22632;SDS011;11483;55.828;37.488;2022-09-28T07:51:29;3.25;;;2.33;;
22632;SDS011;11483;55.828;37.488;2022-09-28T07:53:58;3.65;;;2.22;;
22632;SDS011;11483;55.828;37.488;2022-09-28T07:56:24;6.97;;;3.42;;
22632;SDS011;11483;55.828;37.488;2022-09-28T07:58:50;5.88;;;3.10;;
22632;SDS011;11483;55.828;37.488;2022-09-28T08:01:16;3.67;;;2.45;;
22632;SDS011;11483;55.828;37.488;2022-09-28T08:03:43;6.40;;;2.97;;
22632;SDS011;11483;55.828;37.488;2022-09-28T08:06:11;3.83;;;3.00;;
22632;SDS011;11483;55.828;37.488;2022-09-28T08:08:40;6.55;;;2.55;;
22632;SDS011;11483;55.828;37.488;2022-09-28T08:11:11;7.82;;;2.78;;
22632;SDS011;11483;55.828;37.488;2022-09-28T08:13:39;8.93;;;3.00;;
22632;SDS011;11483;55.828;37.488;2022-09-28T08:16:05;3.88;;;2.60;;
22632;SDS011;11483;55.828;37.488;2022-09-28T08:18:32;6.15;;;2.88;;
22632;SDS011;11483;55.828;37.488;2022-09-28T08:21:03;4.20;;;2.50;;
22632;SDS011;11483;55.828;37.488;2022-09-28T08:24:01;4.68;;;2.55;;
22632;SDS011;11483;55.828;37.488;2022-09-28T08:26:27;7.88;;;2.13;;
22632;SDS011;11483;55.828;37.488;2022-09-28T08:28:53;7.93;;;2.90;;
22632;SDS011;11483;55.828;37.488;2022-09-28T08:31:19;7.85;;;2.67;;
22632;SDS011;11483;55.828;37.488;2022-09-28T08:33:45;6.65;;;2.90;;
22632;SDS011;11483;55.828;37.488;2022-09-28T08:36:18;6.40;;;2.63;;
22632;SDS011;11483;55.828;37.488;2022-09-28T08:38:45;9.18;;;3.85;;
22632;SDS011;11483;55.828;37.488;2022-09-28T08:41:15;5.50;;;2.83;;
22632;SDS011;11483;55.828;37.488;2022-09-28T08:44:18;6.53;;;2.90;;
22632;SDS011;11483;55.828;37.488;2022-09-28T08:47:06;4.15;;;2.25;;
22632;SDS011;11483;55.828;37.488;2022-09-28T08:50:11;6.00;;;2.95;;
22632;SDS011;11483;55.828;37.488;2022-09-28T08:52:42;5.13;;;2.95;;
22632;SDS011;11483;55.828;37.488;2022-09-28T08:55:18;4.50;;;2.50;;
22632;SDS011;11483;55.828;37.488;2022-09-28T09:00:45;8.50;;;2.80;;
22632;SDS011;11483;55.828;37.488;2022-09-28T09:03:20;4.90;;;3.08;;
22632;SDS011;11483;55.828;37.488;2022-09-28T09:08:48;4.63;;;2.47;;
22632;SDS011;11483;55.828;37.488;2022-09-28T09:14:32;4.85;;;2.92;;
22632;SDS011;11483;55.828;37.488;2022-09-28T09:17:17;3.65;;;2.60;;
22632;SDS011;11483;55.828;37.488;2022-09-28T09:19:51;6.13;;;2.60;;
22632;SDS011;11483;55.828;37.488;2022-09-28T09:24:54;4.55;;;2.33;;
22632;SDS011;11483;55.828;37.488;2022-09-28T09:30:26;6.65;;;3.20;;
22632;SDS011;11483;55.828;37.488;2022-09-28T09:38:56;3.70;;;2.40;;
22632;SDS011;11483;55.828;37.488;2022-09-28T09:41:48;4.30;;;2.78;;
22632;SDS011;11483;55.828;37.488;2022-09-28T09:47:10;5.28;;;2.65;;
22632;SDS011;11483;55.828;37.488;2022-09-28T09:50:04;3.92;;;2.80;;
22632;SDS011;11483;55.828;37.488;2022-09-28T09:52:53;5.40;;;2.97;;
22632;SDS011;11483;55.828;37.488;2022-09-28T09:55:49;5.88;;;3.53;;
22632;SDS011;11483;55.828;37.488;2022-09-28T09:58:29;9.00;;;3.22;;
22632;SDS011;11483;55.828;37.488;2022-09-28T10:01:12;6.35;;;3.10;;
22632;SDS011;11483;55.828;37.488;2022-09-28T10:03:41;4.80;;;2.83;;
22632;SDS011;11483;55.828;37.488;2022-09-28T10:06:19;6.70;;;3.30;;
22632;SDS011;11483;55.828;37.488;2022-09-28T10:09:35;6.28;;;3.55;;
22632;SDS011;11483;55.828;37.488;2022-09-28T10:11:46;5.82;;;3.67;;
22632;SDS011;11483;55.828;37.488;2022-09-28T10:14:17;6.28;;;3.50;;
22632;SDS011;11483;55.828;37.488;2022-09-28T10:16:46;5.90;;;3.42;;
22632;SDS011;11483;55.828;37.488;2022-09-28T10:19:17;8.75;;;3.95;;
22632;SDS011;11483;55.828;37.488;2022-09-28T10:21:46;8.82;;;3.50;;
22632;SDS011;11483;55.828;37.488;2022-09-28T10:24:16;11.15;;;4.05;;
22632;SDS011;11483;55.828;37.488;2022-09-28T10:26:52;5.90;;;3.28;;
22632;SDS011;11483;55.828;37.488;2022-09-28T10:29:20;5.80;;;3.97;;
22632;SDS011;11483;55.828;37.488;2022-09-28T10:31:49;10.57;;;4.40;;
22632;SDS011;11483;55.828;37.488;2022-09-28T10:34:17;10.95;;;4.20;;
22632;SDS011;11483;55.828;37.488;2022-09-28T10:36:55;9.73;;;4.05;;
22632;SDS011;11483;55.828;37.488;2022-09-28T10:39:39;10.88;;;4.10;;
22632;SDS011;11483;55.828;37.488;2022-09-28T10:42:10;7.20;;;4.10;;
22632;SDS011;11483;55.828;37.488;2022-09-28T10:44:54;7.90;;;3.92;;
22632;SDS011;11483;55.828;37.488;2022-09-28T10:47:24;5.45;;;3.45;;
22632;SDS011;11483;55.828;37.488;2022-09-28T10:49:53;6.72;;;3.50;;
22632;SDS011;11483;55.828;37.488;2022-09-28T10:52:33;5.90;;;3.80;;
22632;SDS011;11483;55.828;37.488;2022-09-28T10:55:01;10.00;;;3.83;;
22632;SDS011;11483;55.828;37.488;2022-09-28T10:57:48;7.45;;;3.83;;
22632;SDS011;11483;55.828;37.488;2022-09-28T11:01:01;10.18;;;4.72;;
22632;SDS011;11483;55.828;37.488;2022-09-28T11:03:03;7.63;;;4.07;;
22632;SDS011;11483;55.828;37.488;2022-09-28T11:05:29;5.88;;;4.03;;
22632;SDS011;11483;55.828;37.488;2022-09-28T11:07:57;8.63;;;4.03;;
22632;SDS011;11483;55.828;37.488;2022-09-28T11:10:31;6.80;;;3.95;;
22632;SDS011;11483;55.828;37.488;2022-09-28T11:12:58;7.45;;;4.03;;
22632;SDS011;11483;55.828;37.488;2022-09-28T11:15:26;6.18;;;4.05;;
22632;SDS011;11483;55.828;37.488;2022-09-28T11:17:54;6.65;;;4.15;;
22632;SDS011;11483;55.828;37.488;2022-09-28T11:20:39;9.57;;;3.75;;
22632;SDS011;11483;55.828;37.488;2022-09-28T11:25:56;6.80;;;3.65;;
22632;SDS011;11483;55.828;37.488;2022-09-28T11:28:28;6.75;;;3.53;;
22632;SDS011;11483;55.828;37.488;2022-09-28T11:30:56;7.43;;;2.97;;
22632;SDS011;11483;55.828;37.488;2022-09-28T11:33:33;7.72;;;2.45;;
22632;SDS011;11483;55.828;37.488;2022-09-28T11:36:12;7.28;;;3.25;;
22632;SDS011;11483;55.828;37.488;2022-09-28T11:44:44;4.40;;;3.30;;
22632;SDS011;11483;55.828;37.488;2022-09-28T11:47:24;7.78;;;3.70;;
22632;SDS011;11483;55.828;37.488;2022-09-28T11:55:25;7.80;;;4.30;;
22632;SDS011;11483;55.828;37.488;2022-09-28T11:58:02;8.45;;;3.58;;
22632;SDS011;11483;55.828;37.488;2022-09-28T12:00:37;5.28;;;3.20;;
22632;SDS011;11483;55.828;37.488;2022-09-28T12:03:15;6.15;;;2.60;;
22632;SDS011;11483;55.828;37.488;2022-09-28T12:05:51;4.25;;;2.58;;
22632;SDS011;11483;55.828;37.488;2022-09-28T12:08:25;7.40;;;2.40;;
22632;SDS011;11483;55.828;37.488;2022-09-28T12:13:41;5.25;;;3.08;;
22632;SDS011;11483;55.828;37.488;2022-09-28T12:16:54;3.78;;;2.83;;
22632;SDS011;11483;55.828;37.488;2022-09-28T12:19:12;3.95;;;2.90;;
22632;SDS011;11483;55.828;37.488;2022-09-28T12:22:04;5.07;;;2.90;;
22632;SDS011;11483;55.828;37.488;2022-09-28T12:24:51;3.67;;;2.53;;
22632;SDS011;11483;55.828;37.488;2022-09-28T12:27:23;3.13;;;2.25;;
22632;SDS011;11483;55.828;37.488;2022-09-28T12:30:21;4.80;;;3.00;;
22632;SDS011;11483;55.828;37.488;2022-09-28T12:35:39;3.20;;;2.58;;
22632;SDS011;11483;55.828;37.488;2022-09-28T12:49:03;3.38;;;2.40;;
22632;SDS011;11483;55.828;37.488;2022-09-28T12:51:50;3.67;;;2.60;;
22632;SDS011;11483;55.828;37.488;2022-09-28T12:58:07;5.30;;;2.78;;
22632;SDS011;11483;55.828;37.488;2022-09-28T13:00:18;6.00;;;2.85;;
22632;SDS011;11483;55.828;37.488;2022-09-28T13:11:39;5.25;;;3.08;;
22632;SDS011;11483;55.828;37.488;2022-09-28T13:14:42;5.47;;;3.40;;
22632;SDS011;11483;55.828;37.488;2022-09-28T13:29:03;7.25;;;3.60;;
22632;SDS011;11483;55.828;37.488;2022-09-28T13:31:36;7.50;;;2.88;;
22632;SDS011;11483;55.828;37.488;2022-09-28T13:34:05;7.80;;;3.35;;
22632;SDS011;11483;55.828;37.488;2022-09-28T13:36:37;8.23;;;3.35;;
22632;SDS011;11483;55.828;37.488;2022-09-28T13:39:13;6.75;;;3.58;;
22632;SDS011;11483;55.828;37.488;2022-09-28T13:41:58;5.70;;;3.13;;
22632;SDS011;11483;55.828;37.488;2022-09-28T13:47:17;5.93;;;3.10;;
22632;SDS011;11483;55.828;37.488;2022-09-28T13:55:39;8.32;;;3.40;;
22632;SDS011;11483;55.828;37.488;2022-09-28T13:58:30;5.25;;;3.30;;
22632;SDS011;11483;55.828;37.488;2022-09-28T14:01:06;5.63;;;3.40;;
22632;SDS011;11483;55.828;37.488;2022-09-28T14:06:42;5.07;;;2.90;;
22632;SDS011;11483;55.828;37.488;2022-09-28T14:20:48;5.57;;;2.92;;
22632;SDS011;11483;55.828;37.488;2022-09-28T14:23:27;4.93;;;2.80;;
22632;SDS011;11483;55.828;37.488;2022-09-28T14:26:14;4.07;;;2.80;;
22632;SDS011;11483;55.828;37.488;2022-09-28T14:31:25;4.47;;;2.80;;
22632;SDS011;11483;55.828;37.488;2022-09-28T14:33:57;4.72;;;2.90;;
22632;SDS011;11483;55.828;37.488;2022-09-28T14:36:33;5.65;;;2.90;;
22632;SDS011;11483;55.828;37.488;2022-09-28T14:39:27;5.47;;;2.90;;
22632;SDS011;11483;55.828;37.488;2022-09-28T14:42:15;3.72;;;2.90;;
22632;SDS011;11483;55.828;37.488;2022-09-28T14:45:45;6.35;;;2.75;;
22632;SDS011;11483;55.828;37.488;2022-09-28T14:47:41;7.40;;;3.47;;
22632;SDS011;11483;55.828;37.488;2022-09-28T14:50:27;6.30;;;2.83;;
22632;SDS011;11483;55.828;37.488;2022-09-28T14:55:32;4.88;;;3.50;;
22632;SDS011;11483;55.828;37.488;2022-09-28T14:58:04;5.10;;;3.08;;
22632;SDS011;11483;55.828;37.488;2022-09-28T15:00:40;8.05;;;3.30;;
22632;SDS011;11483;55.828;37.488;2022-09-28T15:03:08;6.00;;;3.20;;
22632;SDS011;11483;55.828;37.488;2022-09-28T15:05:40;10.95;;;3.50;;
22632;SDS011;11483;55.828;37.488;2022-09-28T15:08:09;9.20;;;3.30;;
22632;SDS011;11483;55.828;37.488;2022-09-28T15:10:37;4.32;;;3.30;;
22632;SDS011;11483;55.828;37.488;2022-09-28T15:13:23;5.95;;;3.08;;
22632;SDS011;11483;55.828;37.488;2022-09-28T15:16:25;4.57;;;3.08;;
22632;SDS011;11483;55.828;37.488;2022-09-28T15:21:19;7.30;;;3.30;;
22632;SDS011;11483;55.828;37.488;2022-09-28T15:23:46;6.72;;;3.60;;
22632;SDS011;11483;55.828;37.488;2022-09-28T15:26:33;6.32;;;3.85;;
22632;SDS011;11483;55.828;37.488;2022-09-28T15:28:58;6.30;;;3.30;;
22632;SDS011;11483;55.828;37.488;2022-09-28T15:31:27;7.43;;;3.33;;
22632;SDS011;11483;55.828;37.488;2022-09-28T15:33:59;6.13;;;3.65;;
22632;SDS011;11483;55.828;37.488;2022-09-28T15:36:43;6.82;;;3.22;;
22632;SDS011;11483;55.828;37.488;2022-09-28T15:39:14;5.45;;;3.80;;
22632;SDS011;11483;55.828;37.488;2022-09-28T15:41:46;4.00;;;3.40;;
22632;SDS011;11483;55.828;37.488;2022-09-28T15:46:43;5.50;;;3.53;;
22632;SDS011;11483;55.828;37.488;2022-09-28T15:49:23;5.45;;;3.50;;
22632;SDS011;11483;55.828;37.488;2022-09-28T15:52:24;4.63;;;2.70;;
22632;SDS011;11483;55.828;37.488;2022-09-28T15:55:00;5.45;;;2.88;;
22632;SDS011;11483;55.828;37.488;2022-09-28T15:57:31;6.60;;;4.00;;
22632;SDS011;11483;55.828;37.488;2022-09-28T16:00:02;6.85;;;2.90;;
22632;SDS011;11483;55.828;37.488;2022-09-28T16:02:30;7.68;;;2.92;;
22632;SDS011;11483;55.828;37.488;2022-09-28T16:04:59;6.68;;;2.90;;
22632;SDS011;11483;55.828;37.488;2022-09-28T16:07:44;6.15;;;3.00;;
22632;SDS011;11483;55.828;37.488;2022-09-28T16:12:56;12.40;;;3.10;;
22632;SDS011;11483;55.828;37.488;2022-09-28T16:15:42;4.38;;;2.85;;
22632;SDS011;11483;55.828;37.488;2022-09-28T16:20:42;4.90;;;3.10;;
22632;SDS011;11483;55.828;37.488;2022-09-28T16:25:42;5.38;;;3.40;;
22632;SDS011;11483;55.828;37.488;2022-09-28T16:28:45;5.68;;;3.10;;
22632;SDS011;11483;55.828;37.488;2022-09-28T16:33:42;6.68;;;3.22;;
22632;SDS011;11483;55.828;37.488;2022-09-28T16:36:16;6.47;;;3.67;;
22632;SDS011;11483;55.828;37.488;2022-09-28T16:38:43;6.45;;;3.20;;
22632;SDS011;11483;55.828;37.488;2022-09-28T16:41:09;9.73;;;3.47;;
22632;SDS011;11483;55.828;37.488;2022-09-28T16:43:37;10.60;;;3.35;;
22632;SDS011;11483;55.828;37.488;2022-09-28T16:46:08;4.60;;;3.00;;
22632;SDS011;11483;55.828;37.488;2022-09-28T16:48:43;7.15;;;3.85;;
22632;SDS011;11483;55.828;37.488;2022-09-28T16:51:14;3.13;;;2.50;;
22632;SDS011;11483;55.828;37.488;2022-09-28T16:53:42;7.03;;;3.22;;
22632;SDS011;11483;55.828;37.488;2022-09-28T16:56:26;5.68;;;3.00;;
22632;SDS011;11483;55.828;37.488;2022-09-28T16:58:55;9.82;;;2.88;;
22632;SDS011;11483;55.828;37.488;2022-09-28T17:01:21;12.57;;;3.33;;
22632;SDS011;11483;55.828;37.488;2022-09-28T17:03:48;5.60;;;2.80;;
22632;SDS011;11483;55.828;37.488;2022-09-28T17:06:18;4.03;;;2.60;;
22632;SDS011;11483;55.828;37.488;2022-09-28T17:08:50;4.47;;;3.30;;
22632;SDS011;11483;55.828;37.488;2022-09-28T17:11:17;6.75;;;2.85;;
22632;SDS011;11483;55.828;37.488;2022-09-28T17:13:45;7.32;;;3.35;;
22632;SDS011;11483;55.828;37.488;2022-09-28T17:18:42;9.27;;;3.70;;
22632;SDS011;11483;55.828;37.488;2022-09-28T17:21:11;6.45;;;3.58;;
22632;SDS011;11483;55.828;37.488;2022-09-28T17:23:40;10.50;;;3.45;;
22632;SDS011;11483;55.828;37.488;2022-09-28T17:26:07;9.70;;;3.25;;
22632;SDS011;11483;55.828;37.488;2022-09-28T17:28:47;7.25;;;3.38;;
22632;SDS011;11483;55.828;37.488;2022-09-28T17:31:14;5.68;;;3.40;;
22632;SDS011;11483;55.828;37.488;2022-09-28T17:33:41;5.80;;;3.22;;
22632;SDS011;11483;55.828;37.488;2022-09-28T17:36:14;18.63;;;3.63;;
22632;SDS011;11483;55.828;37.488;2022-09-28T17:38:42;11.20;;;3.97;;